Time;durP1;ratioP1;P1;durP2;ratioP2;P2;SDS_P1;SDS_P2;PMS_P1;PMS_P2;Temp;Humidity;BMP_temperature;BMP_pressure;BME280_temperature;BME280_humidity;BME280_pressure;Samples;Min_cycle;Max_cycle;Signal;HPM_P1;HPM_P2
2023/04/03 00:01:56;;;;;;;0.00;0.00;;;8.20;99.90;;;;;;5026998;28;20113;-80
2023/04/03 00:04:22;;;;;;;0.10;0.10;;;8.20;99.90;;;;;;5026797;28;20029;-80
2023/04/03 00:06:47;;;;;;;0.05;0.05;;;8.20;99.90;;;;;;5026326;28;20026;-80
2023/04/03 00:09:13;;;;;;;0.10;0.10;;;8.20;99.90;;;;;;5026872;28;20026;-82
2023/04/03 00:11:39;;;;;;;0.00;0.00;;;8.30;99.90;;;;;;5028756;28;20045;-81
2023/04/03 00:14:05;;;;;;;0.05;0.05;;;8.30;99.90;;;;;;5027606;28;20014;-81
2023/04/03 00:16:31;;;;;;;0.10;0.10;;;;;;;;;;5027787;28;20073;-80
2023/04/03 00:18:56;;;;;;;0.00;0.00;;;8.40;99.90;;;;;;5027353;28;20017;-81
2023/04/03 00:21:22;;;;;;;0.10;0.10;;;8.40;99.90;;;;;;5008472;28;20688;-80
2023/04/03 00:23:48;;;;;;;0.08;0.08;;;8.40;99.90;;;;;;5028776;28;20025;-80
2023/04/03 00:26:14;;;;;;;0.03;0.03;;;8.30;99.90;;;;;;5033085;28;20107;-81
2023/04/03 00:28:40;;;;;;;0.10;0.10;;;8.30;99.90;;;;;;5036776;28;20025;-81
2023/04/03 00:31:05;;;;;;;0.10;0.10;;;8.30;99.90;;;;;;5042427;28;20234;-82
2023/04/03 00:33:31;;;;;;;0.10;0.10;;;8.30;99.90;;;;;;5039241;28;20277;-81
2023/04/03 00:35:57;;;;;;;0.10;0.10;;;8.40;99.90;;;;;;5032281;28;20056;-80
2023/04/03 00:38:23;;;;;;;0.03;0.03;;;8.20;99.90;;;;;;5031253;28;20045;-81
2023/04/03 00:40:49;;;;;;;0.00;0.00;;;8.10;99.90;;;;;;5030783;28;20037;-80
2023/04/03 00:43:19;;;;;;;0.57;0.57;;;8.10;99.90;;;;;;5014438;28;20029;-80
2023/04/03 00:45:48;;;;;;;0.00;0.00;;;8.20;99.90;;;;;;5031256;28;20096;-80
2023/04/03 00:48:22;;;;;;;0.00;0.00;;;8.20;99.90;;;;;;5012977;28;20056;-79
2023/04/03 00:50:49;;;;;;;0.00;0.00;;;8.20;99.90;;;;;;5029518;28;20152;-81
2023/04/03 00:53:22;;;;;;;0.00;0.00;;;8.30;99.90;;;;;;5026553;28;20013;-81
2023/04/03 00:55:49;;;;;;;0.00;0.00;;;8.30;99.90;;;;;;5024559;28;20034;-79
2023/04/03 00:58:18;;;;;;;0.10;0.10;;;8.40;99.90;;;;;;5025054;28;20013;-81
2023/04/03 01:00:51;;;;;;;0.00;0.00;;;8.40;99.90;;;;;;5025254;28;20142;-81
2023/04/03 01:03:17;;;;;;;0.00;0.00;;;8.40;99.90;;;;;;5012093;28;20029;-80
2023/04/03 01:05:42;;;;;;;0.10;0.10;;;8.40;99.90;;;;;;5029892;28;20032;-81
2023/04/03 01:08:08;;;;;;;0.10;0.10;;;8.40;99.90;;;;;;5032531;28;20608;-80
2023/04/03 01:10:34;;;;;;;0.10;0.10;;;8.40;99.90;;;;;;5034356;28;20684;-80
2023/04/03 01:13:01;;;;;;;0.10;0.10;;;8.40;99.90;;;;;;5033445;28;20060;-80
2023/04/03 01:15:34;;;;;;;0.10;0.10;;;8.40;99.90;;;;;;5033925;28;20050;-80
2023/04/03 01:18:00;;;;;;;0.00;0.00;;;8.40;99.90;;;;;;5023170;28;20083;-79
2023/04/03 01:20:32;;;;;;;0.10;0.10;;;8.40;99.90;;;;;;5004525;28;20034;-80
2023/04/03 01:23:13;;;;;;;0.10;0.10;;;8.40;99.90;;;;;;5022413;28;20109;-79
2023/04/03 01:25:38;;;;;;;0.00;0.00;;;8.40;99.90;;;;;;5006345;28;20041;-78
2023/04/03 01:28:07;;;;;;;0.10;0.10;;;8.40;99.90;;;;;;5021982;28;20089;-80
2023/04/03 01:30:59;;;;;;;0.00;0.00;;;8.40;99.90;;;;;;5022498;28;20750;-81
2023/04/03 01:33:25;;;;;;;23.00;20.75;;;8.40;99.90;;;;;;5032281;28;20573;-80
2023/04/03 01:35:51;;;;;;;0.08;0.08;;;8.40;99.90;;;;;;5033653;28;20309;-80
2023/04/03 01:38:17;;;;;;;3.13;2.78;;;8.40;99.90;;;;;;5032291;28;20692;-83
2023/04/03 01:40:43;;;;;;;0.30;0.30;;;8.40;99.90;;;;;;5034567;28;20018;-80
2023/04/03 01:43:09;;;;;;;0.05;0.05;;;8.40;99.90;;;;;;5012612;28;20093;-82
2023/04/03 01:45:35;;;;;;;0.00;0.00;;;;;;;;;;5029686;28;20124;-80
2023/04/03 01:48:01;;;;;;;0.00;0.00;;;8.40;99.90;;;;;;5022270;28;20017;-79
2023/04/03 01:50:26;;;;;;;0.47;0.47;;;8.40;99.90;;;;;;5022228;28;20025;-80
2023/04/03 01:52:52;;;;;;;0.40;0.40;;;8.40;99.90;;;;;;5021633;28;20037;-80
2023/04/03 01:55:19;;;;;;;1.98;1.88;;;8.40;99.90;;;;;;5022147;28;20025;-79
2023/04/03 01:57:45;;;;;;;0.00;0.00;;;8.40;99.90;;;;;;5023567;28;20060;-79
2023/04/03 02:00:11;;;;;;;0.10;0.10;;;8.40;99.90;;;;;;5023556;28;20669;-80
2023/04/03 02:02:37;;;;;;;0.10;0.10;;;8.40;99.90;;;;;;5026159;28;20053;-81
2023/04/03 02:05:03;;;;;;;0.40;0.40;;;8.50;99.90;;;;;;5029025;28;20049;-80
2023/04/03 02:07:33;;;;;;;0.00;0.00;;;8.50;99.90;;;;;;5027793;28;20027;-80
2023/04/03 02:09:59;;;;;;;0.00;0.00;;;8.50;99.90;;;;;;4993322;28;20025;-80
2023/04/03 02:12:24;;;;;;;0.10;0.10;;;8.40;99.90;;;;;;5031746;28;20025;-79
2023/04/03 02:14:50;;;;;;;0.10;0.10;;;8.30;99.90;;;;;;5030311;28;20052;-79
2023/04/03 02:17:16;;;;;;;0.00;0.00;;;8.40;99.90;;;;;;5024731;28;20083;-79
2023/04/03 02:19:42;;;;;;;0.00;0.00;;;8.40;99.90;;;;;;5019808;28;20021;-78
2023/04/03 02:22:08;;;;;;;0.00;0.00;;;7.00;99.90;;;;;;5019850;28;20052;-79
2023/04/03 02:24:33;;;;;;;0.00;0.00;;;8.40;99.90;;;;;;5020252;28;20017;-80
2023/04/03 02:27:00;;;;;;;0.10;0.10;;;8.40;99.90;;;;;;5020015;28;20086;-79
2023/04/03 02:29:26;;;;;;;0.00;0.00;;;8.40;99.90;;;;;;5020060;28;20021;-79
2023/04/03 02:31:51;;;;;;;0.00;0.00;;;8.40;99.90;;;;;;5019667;28;20068;-80
2023/04/03 02:34:17;;;;;;;0.00;0.00;;;8.40;99.90;;;;;;5019569;28;20111;-79
2023/04/03 02:36:44;;;;;;;0.00;0.00;;;8.50;99.90;;;;;;5019875;28;20055;-80
2023/04/03 02:39:10;;;;;;;0.05;0.05;;;;;;;;;;5001617;28;20045;-79
2023/04/03 02:41:36;;;;;;;0.00;0.00;;;8.40;99.90;;;;;;5001839;28;20032;-79
2023/04/03 02:44:04;;;;;;;0.10;0.10;;;8.40;99.90;;;;;;5020901;28;20021;-80
2023/04/03 02:46:31;;;;;;;0.10;0.10;;;8.40;99.90;;;;;;5022720;28;20100;-82
2023/04/03 02:48:57;;;;;;;0.00;0.00;;;8.40;99.90;;;;;;5027792;28;20028;-79
2023/04/03 02:51:23;;;;;;;0.10;0.10;;;8.40;99.90;;;;;;5029499;28;20037;-81
2023/04/03 02:53:50;;;;;;;0.80;0.80;;;8.30;99.90;;;;;;5030029;28;20029;-79
2023/04/03 02:56:23;;;;;;;0.00;0.00;;;8.30;99.90;;;;;;5027707;28;20020;-79
2023/04/03 02:58:49;;;;;;;0.10;0.10;;;;;;;;;;5027639;28;20034;-80
2023/04/03 03:01:20;;;;;;;0.10;0.10;;;8.30;99.90;;;;;;5033032;28;20108;-80
2023/04/03 03:03:46;;;;;;;0.00;0.00;;;8.20;99.90;;;;;;5032131;28;20065;-79
2023/04/03 03:06:16;;;;;;;0.08;0.08;;;8.20;99.90;;;;;;5016045;28;20754;-79
2023/04/03 03:08:42;;;;;;;0.00;0.00;;;;;;;;;;5036346;28;20061;-80
2023/04/03 03:11:09;;;;;;;2.10;2.00;;;8.20;99.90;;;;;;5013296;28;20026;-79
2023/04/03 03:13:35;;;;;;;6.55;6.28;;;8.20;99.90;;;;;;5014301;28;20053;-80
2023/04/03 03:16:05;;;;;;;0.10;0.10;;;8.20;99.90;;;;;;5029667;28;20056;-81
2023/04/03 03:18:33;;;;;;;0.00;0.00;;;8.20;99.90;;;;;;5020428;28;20101;-79
2023/04/03 03:21:01;;;;;;;0.03;0.03;;;8.20;99.90;;;;;;5019722;28;20020;-79
2023/04/03 03:23:28;;;;;;;0.00;0.00;;;8.20;99.90;;;;;;5021263;28;20030;-79
2023/04/03 03:25:56;;;;;;;0.00;0.00;;;8.10;99.90;;;;;;5022855;28;20653;-80
2023/04/03 03:28:22;;;;;;;0.08;0.08;;;8.10;99.90;;;;;;5019413;28;20100;-79
2023/04/03 03:30:48;;;;;;;0.00;0.00;;;8.10;99.90;;;;;;5019047;28;20114;-79
2023/04/03 03:33:14;;;;;;;1.13;1.10;;;8.00;99.90;;;;;;5019133;28;20053;-79
2023/04/03 03:35:40;;;;;;;1.65;1.25;;;6.30;99.90;;;;;;5019705;28;20572;-79
2023/04/03 03:38:06;;;;;;;0.10;0.10;;;7.90;99.90;;;;;;5019327;28;20029;-79
2023/04/03 03:40:32;;;;;;;0.35;0.35;;;7.90;99.90;;;;;;5020962;28;20013;-80
2023/04/03 03:42:58;;;;;;;0.17;0.17;;;7.80;99.90;;;;;;5020118;28;20028;-80
2023/04/03 03:45:24;;;;;;;0.03;0.03;;;7.80;99.90;;;;;;5001934;28;20025;-79
2023/04/03 03:47:50;;;;;;;0.00;0.00;;;7.70;99.90;;;;;;5022402;28;20677;-80
2023/04/03 03:50:17;;;;;;;0.00;0.00;;;7.70;99.90;;;;;;5027967;28;20021;-79
2023/04/03 03:52:43;;;;;;;0.00;0.00;;;7.70;99.90;;;;;;5011522;28;20032;-79
2023/04/03 03:55:09;;;;;;;0.10;0.10;;;7.80;99.90;;;;;;5004602;28;20025;-79
2023/04/03 03:57:34;;;;;;;0.05;0.05;;;7.80;99.90;;;;;;5022397;28;20089;-79
2023/04/03 04:00:00;;;;;;;0.10;0.10;;;7.80;99.90;;;;;;5025018;28;20021;-80
2023/04/03 04:02:26;;;;;;;0.00;0.00;;;7.80;99.90;;;;;;5019789;28;20037;-79
2023/04/03 04:04:52;;;;;;;0.10;0.10;;;7.90;99.90;;;;;;5004896;28;20026;-80
2023/04/03 04:07:18;;;;;;;0.05;0.05;;;7.90;99.90;;;;;;5023455;28;20049;-80
2023/04/03 04:09:43;;;;;;;0.00;0.00;;;7.90;99.90;;;;;;5023354;28;20020;-79
2023/04/03 04:12:09;;;;;;;0.00;0.00;;;8.00;99.90;;;;;;5023096;28;20072;-78
2023/04/03 04:14:35;;;;;;;2.70;2.58;;;8.00;99.90;;;;;;5023180;28;20022;-79
2023/04/03 04:17:02;;;;;;;0.10;0.10;;;7.80;99.90;;;;;;5023279;28;20026;-79
2023/04/03 04:19:28;;;;;;;0.10;0.10;;;7.80;99.90;;;;;;5022154;28;20017;-79
2023/04/03 04:21:53;;;;;;;7.28;6.82;;;7.80;99.90;;;;;;5023082;28;20688;-79
2023/04/03 04:24:19;;;;;;;0.55;0.55;;;7.80;99.90;;;;;;5023470;28;20017;-79
2023/04/03 04:26:45;;;;;;;0.00;0.00;;;7.80;99.90;;;;;;5023767;28;20018;-79
2023/04/03 04:29:11;;;;;;;0.00;0.00;;;;;;;;;;5024090;28;20664;-79
2023/04/03 04:31:37;;;;;;;0.47;0.47;;;7.80;99.90;;;;;;5011716;28;20036;-80
2023/04/03 04:34:07;;;;;;;0.00;0.00;;;7.90;99.90;;;;;;5040956;28;20621;-79
2023/04/03 04:36:32;;;;;;;0.00;0.00;;;9.90;99.90;;;;;;5041446;28;20078;-80
2023/04/03 04:39:03;;;;;;;0.10;0.10;;;10.30;99.90;;;;;;5046955;28;20077;-83
2023/04/03 04:41:30;;;;;;;0.00;0.00;;;7.90;99.90;;;;;;5050521;28;20029;-79
2023/04/03 04:44:05;;;;;;;0.30;0.30;;;;;;;;;;5025061;28;20686;-80
2023/04/03 04:46:42;;;;;;;1.08;1.02;;;7.90;99.90;;;;;;5039103;28;20030;-81
2023/04/03 04:49:10;;;;;;;0.00;0.00;;;7.80;99.90;;;;;;5015303;28;20036;-81
2023/04/03 04:51:36;;;;;;;0.10;0.10;;;7.70;99.90;;;;;;5039964;28;20044;-81
2023/04/03 04:54:04;;;;;;;0.00;0.00;;;;;;;;;;5047873;28;20029;-79
2023/04/03 04:56:33;;;;;;;0.00;0.00;;;7.30;99.90;;;;;;5049898;28;20055;-79
2023/04/03 04:59:02;;;;;;;0.10;0.10;;;7.20;99.90;;;;;;5048837;28;20040;-80
2023/04/03 05:01:31;;;;;;;0.00;0.00;;;7.10;99.90;;;;;;5033022;28;20041;-79
2023/04/03 05:04:00;;;;;;;0.10;0.10;;;7.00;99.90;;;;;;5027440;28;20127;-79
2023/04/03 05:06:26;;;;;;;0.00;0.00;;;6.90;99.90;;;;;;5006886;28;20699;-79
2023/04/03 05:08:52;;;;;;;0.00;0.00;;;7.00;99.90;;;;;;5022158;28;20105;-79
2023/04/03 05:11:17;;;;;;;0.00;0.00;;;7.00;99.90;;;;;;5020966;28;20033;-79
2023/04/03 05:13:43;;;;;;;0.00;0.00;;;7.00;99.90;;;;;;5023542;28;20056;-79
2023/04/03 05:16:11;;;;;;;0.00;0.00;;;7.10;99.90;;;;;;5024379;28;20053;-79
2023/04/03 05:18:38;;;;;;;0.00;0.00;;;7.00;99.90;;;;;;5027561;28;20100;-79
2023/04/03 05:21:04;;;;;;;0.00;0.00;;;7.00;99.90;;;;;;5024086;28;20084;-79
2023/04/03 05:23:31;;;;;;;0.00;0.00;;;7.00;99.90;;;;;;5027665;28;20033;-79
2023/04/03 05:25:57;;;;;;;0.00;0.00;;;7.10;99.90;;;;;;5024868;28;20029;-80
2023/04/03 05:28:22;;;;;;;5.65;1.13;;;7.20;99.90;;;;;;5024359;28;20096;-80
2023/04/03 05:30:56;;;;;;;0.00;0.00;;;7.10;99.90;;;;;;5011316;28;20036;-79
2023/04/03 05:33:23;;;;;;;0.10;0.10;;;8.30;99.90;;;;;;5024333;28;20041;-79
2023/04/03 05:35:49;;;;;;;0.00;0.00;;;7.00;99.90;;;;;;5028677;28;20045;-79
2023/04/03 05:38:15;;;;;;;0.00;0.00;;;6.90;99.90;;;;;;5008978;28;20599;-80
2023/04/03 05:40:40;;;;;;;0.00;0.00;;;6.90;99.90;;;;;;5027490;28;20040;-79
2023/04/03 05:43:06;;;;;;;0.00;0.00;;;6.80;99.90;;;;;;5026494;28;20060;-79
2023/04/03 05:45:32;;;;;;;0.00;0.00;;;6.90;99.90;;;;;;5027995;28;20107;-79
2023/04/03 05:47:58;;;;;;;0.10;0.10;;;6.80;99.90;;;;;;5027573;28;20037;-79
2023/04/03 05:50:24;;;;;;;0.05;0.05;;;6.80;99.90;;;;;;5032034;28;20547;-82
2023/04/03 05:52:52;;;;;;;0.00;0.00;;;6.70;99.90;;;;;;5016180;28;20511;-80
2023/04/03 05:55:18;;;;;;;0.10;0.10;;;6.60;99.90;;;;;;5016632;28;20083;-80
2023/04/03 05:57:44;;;;;;;0.00;0.00;;;6.50;99.90;;;;;;5033214;28;20022;-78
2023/04/03 06:00:15;;;;;;;0.10;0.10;;;6.50;99.90;;;;;;5031021;28;20108;-79
2023/04/03 06:02:41;;;;;;;0.10;0.10;;;6.40;99.90;;;;;;5029887;28;20029;-79
2023/04/03 06:05:08;;;;;;;0.10;0.10;;;6.30;99.90;;;;;;5023738;28;20424;-79
2023/04/03 06:07:34;;;;;;;0.03;0.03;;;6.40;99.90;;;;;;5020357;28;20025;-79
2023/04/03 06:10:01;;;;;;;0.00;0.00;;;6.30;99.90;;;;;;5002138;28;20032;-79
2023/04/03 06:12:29;;;;;;;0.00;0.00;;;6.40;99.90;;;;;;5020532;28;20025;-78
2023/04/03 06:14:55;;;;;;;0.08;0.08;;;6.40;99.90;;;;;;5019861;28;20042;-79
2023/04/03 06:17:21;;;;;;;0.10;0.10;;;6.50;99.90;;;;;;5019883;28;20025;-79
2023/04/03 06:19:47;;;;;;;0.00;0.00;;;6.60;99.90;;;;;;5021641;28;20021;-79
2023/04/03 06:22:13;;;;;;;2.58;2.47;;;6.60;99.90;;;;;;5022228;28;20500;-78
2023/04/03 06:24:39;;;;;;;0.10;0.10;;;6.70;99.90;;;;;;5021858;28;20060;-78
2023/04/03 06:27:05;;;;;;;0.00;0.00;;;6.70;99.90;;;;;;5023620;28;20018;-79
2023/04/03 06:29:31;;;;;;;2.83;2.72;;;6.60;99.90;;;;;;5023808;28;20099;-79
2023/04/03 06:31:57;;;;;;;0.00;0.00;;;6.70;99.90;;;;;;5021550;28;20041;-79
2023/04/03 06:34:23;;;;;;;0.10;0.10;;;6.80;99.90;;;;;;5021720;28;20024;-79
2023/04/03 06:36:50;;;;;;;0.00;0.00;;;6.70;99.90;;;;;;5023940;28;20027;-79
2023/04/03 06:39:20;;;;;;;0.00;0.00;;;6.30;99.90;;;;;;5021239;28;20024;-79
2023/04/03 06:41:47;;;;;;;0.00;0.00;;;6.30;99.90;;;;;;5021823;28;20192;-78
2023/04/03 06:44:15;;;;;;;0.10;0.10;;;6.20;99.90;;;;;;5020858;28;20045;-79
2023/04/03 06:46:43;;;;;;;0.00;0.00;;;4.40;99.90;;;;;;5020605;28;20031;-79
2023/04/03 06:49:10;;;;;;;0.10;0.10;;;;;;;;;;5021859;28;20048;-80
2023/04/03 06:51:36;;;;;;;0.10;0.10;;;6.00;99.90;;;;;;5022943;28;20036;-79
2023/04/03 06:54:05;;;;;;;0.10;0.10;;;5.90;99.90;;;;;;5005599;28;20481;-79
2023/04/03 06:56:31;;;;;;;0.20;0.20;;;5.90;99.90;;;;;;5020301;28;20551;-81
2023/04/03 06:58:57;;;;;;;0.05;0.05;;;5.90;99.90;;;;;;5020856;28;20022;-79
2023/04/03 07:01:25;;;;;;;0.00;0.00;;;6.00;99.90;;;;;;5021132;28;20018;-78
2023/04/03 07:03:52;;;;;;;0.10;0.10;;;6.10;99.90;;;;;;5021564;28;20032;-79
2023/04/03 07:06:18;;;;;;;0.10;0.10;;;6.10;99.90;;;;;;5021101;28;20021;-80
2023/04/03 07:08:46;;;;;;;0.10;0.10;;;6.20;99.90;;;;;;5002927;28;20116;-78
2023/04/03 07:11:12;;;;;;;0.05;0.05;;;6.20;99.90;;;;;;5002269;28;20133;-78
2023/04/03 07:13:39;;;;;;;0.00;0.00;;;6.20;99.90;;;;;;5020622;28;20036;-79
2023/04/03 07:16:05;;;;;;;0.00;0.00;;;6.10;99.90;;;;;;5021272;28;20046;-80
2023/04/03 07:18:32;;;;;;;0.08;0.08;;;6.10;99.90;;;;;;5021834;28;20061;-80
2023/04/03 07:20:58;;;;;;;0.10;0.10;;;6.20;99.90;;;;;;5025539;28;20021;-79
2023/04/03 07:23:24;;;;;;;0.00;0.00;;;6.30;99.90;;;;;;5024924;28;20033;-79
2023/04/03 07:25:51;;;;;;;0.00;0.00;;;5.70;99.90;;;;;;5024005;28;20100;-79
2023/04/03 07:28:19;;;;;;;0.03;0.03;;;6.40;99.90;;;;;;5023835;28;20218;-78
2023/04/03 07:30:52;;;;;;;0.00;0.00;;;6.50;99.90;;;;;;5006708;28;20033;-80
2023/04/03 07:33:21;;;;;;;0.00;0.00;;;6.60;99.90;;;;;;5027215;28;20040;-78
2023/04/03 07:35:47;;;;;;;0.00;0.00;;;6.60;99.90;;;;;;5024323;28;20025;-79
2023/04/03 07:38:13;;;;;;;0.00;0.00;;;6.50;99.90;;;;;;5023146;28;20109;-79
2023/04/03 07:40:39;;;;;;;0.00;0.00;;;6.40;99.90;;;;;;5009086;28;20092;-81
2023/04/03 07:43:06;;;;;;;0.00;0.00;;;6.40;99.90;;;;;;5024765;28;20017;-79
2023/04/03 07:45:34;;;;;;;0.00;0.00;;;6.30;99.90;;;;;;5023731;28;20013;-78
2023/04/03 07:48:00;;;;;;;0.00;0.00;;;6.40;99.90;;;;;;5023508;28;20094;-78
2023/04/03 07:50:27;;;;;;;0.00;0.00;;;6.30;99.90;;;;;;5022441;28;20519;-78
2023/04/03 07:52:54;;;;;;;0.10;0.10;;;6.40;99.90;;;;;;5022996;28;20029;-79
2023/04/03 07:55:20;;;;;;;0.00;0.00;;;6.30;99.90;;;;;;5025375;28;20025;-79
2023/04/03 07:57:46;;;;;;;0.10;0.10;;;6.30;99.90;;;;;;5023925;28;20312;-78
2023/04/03 08:00:13;;;;;;;0.05;0.05;;;6.20;99.90;;;;;;5024091;28;20029;-78
2023/04/03 08:02:39;;;;;;;0.00;0.00;;;6.20;99.90;;;;;;5008702;28;20028;-78
2023/04/03 08:05:05;;;;;;;0.00;0.00;;;6.30;99.90;;;;;;5024191;28;20324;-78
2023/04/03 08:07:31;;;;;;;0.00;0.00;;;6.30;99.90;;;;;;5023898;28;20584;-79
2023/04/03 08:09:57;;;;;;;0.00;0.00;;;6.30;99.90;;;;;;5024385;28;20108;-77
2023/04/03 08:12:22;;;;;;;0.00;0.00;;;6.30;99.90;;;;;;5023996;28;20111;-78
2023/04/03 08:14:48;;;;;;;0.10;0.10;;;6.40;99.90;;;;;;5022979;28;20249;-78
2023/04/03 08:17:14;;;;;;;0.00;0.00;;;6.40;99.90;;;;;;5024865;28;20061;-79
2023/04/03 08:19:40;;;;;;;0.05;0.05;;;6.50;99.90;;;;;;5006010;28;20037;-77
2023/04/03 08:22:06;;;;;;;0.00;0.00;;;6.50;99.90;;;;;;5024713;28;20634;-77
2023/04/03 08:24:33;;;;;;;0.00;0.00;;;6.70;99.90;;;;;;5026859;28;20017;-79
2023/04/03 08:26:59;;;;;;;0.10;0.10;;;6.50;99.90;;;;;;5030306;28;20018;-78
2023/04/03 08:29:25;;;;;;;0.10;0.10;;;6.60;99.90;;;;;;5031732;28;20017;-79
2023/04/03 08:31:51;;;;;;;0.10;0.10;;;6.60;99.90;;;;;;5031129;28;20358;-79
2023/04/03 08:34:17;;;;;;;0.03;0.03;;;6.60;99.90;;;;;;5031605;28;20025;-79
2023/04/03 08:36:43;;;;;;;0.10;0.10;;;6.50;99.90;;;;;;5028755;28;20021;-79
2023/04/03 08:39:10;;;;;;;0.00;0.00;;;6.50;99.90;;;;;;5024247;28;20033;-80
2023/04/03 08:41:42;;;;;;;0.00;0.00;;;6.40;99.90;;;;;;5025975;28;20032;-79
2023/04/03 08:44:32;;;;;;;0.10;0.10;;;6.30;99.90;;;;;;5031084;28;20033;-77
2023/04/03 08:47:20;;;;;;;0.00;0.00;;;6.20;99.90;;;;;;5030491;28;20017;-79
2023/04/03 08:49:51;;;;;;;0.00;0.00;;;6.20;99.90;;;;;;5008134;28;20052;-78
2023/04/03 08:52:31;;;;;;;0.00;0.00;;;6.20;99.90;;;;;;5030784;28;20016;-77
2023/04/03 08:55:03;;;;;;;0.00;0.00;;;6.10;99.90;;;;;;5031301;28;20159;-78
2023/04/03 08:57:40;;;;;;;0.05;0.05;;;6.00;99.90;;;;;;5006995;28;20265;-77
2023/04/03 09:00:26;;;;;;;0.00;0.00;;;6.10;99.90;;;;;;5025059;28;20032;-78
2023/04/03 09:02:55;;;;;;;0.00;0.00;;;6.10;99.90;;;;;;5022378;28;20484;-78
2023/04/03 09:05:40;;;;;;;0.00;0.00;;;6.20;99.90;;;;;;5021627;28;20572;-76
2023/04/03 09:08:26;;;;;;;0.10;0.10;;;6.10;99.90;;;;;;5021313;28;20017;-77
2023/04/03 09:11:08;;;;;;;0.03;0.03;;;6.10;99.90;;;;;;5020138;28;20033;-77
2023/04/03 09:13:44;;;;;;;0.00;0.00;;;6.10;99.90;;;;;;5022505;28;20017;-77
2023/04/03 09:16:38;;;;;;;0.10;0.10;;;6.20;99.90;;;;;;5023125;28;20123;-79
2023/04/03 09:19:16;;;;;;;0.00;0.00;;;6.20;99.90;;;;;;5001797;28;20030;-77
2023/04/03 09:21:42;;;;;;;0.08;0.08;;;5.20;99.90;;;;;;5002018;28;20033;-79
2023/04/03 09:24:12;;;;;;;0.10;0.10;;;6.30;99.90;;;;;;5001317;28;20006;-77
2023/04/03 09:26:51;;;;;;;0.10;0.10;;;6.50;99.90;;;;;;5001682;28;20029;-78
2023/04/03 09:29:23;;;;;;;0.00;0.00;;;6.50;99.90;;;;;;5004040;28;20030;-77
2023/04/03 09:31:55;;;;;;;0.00;0.00;;;8.30;99.90;;;;;;5002222;28;20125;-78
2023/04/03 09:34:48;;;;;;;0.10;0.10;;;6.70;99.90;;;;;;5003320;28;20021;-78
2023/04/03 09:37:36;;;;;;;0.03;0.03;;;6.80;99.90;;;;;;5002078;28;20041;-79
2023/04/03 09:40:04;;;;;;;0.00;0.00;;;6.90;99.90;;;;;;5004248;28;20022;-78
2023/04/03 09:42:31;;;;;;;0.00;0.00;;;6.90;99.90;;;;;;5004227;28;20022;-78
2023/04/03 09:45:02;;;;;;;0.10;0.10;;;6.90;99.90;;;;;;5004504;28;20033;-79
2023/04/03 09:47:29;;;;;;;0.10;0.10;;;6.90;99.90;;;;;;5002745;28;20061;-77
2023/04/03 09:50:35;;;;;;;0.00;0.00;;;7.00;99.90;;;;;;5001538;28;20041;-77
2023/04/03 09:53:07;;;;;;;0.00;0.00;;;7.00;99.90;;;;;;4960061;28;20034;-76
2023/04/03 09:55:41;;;;;;;0.00;0.00;;;7.00;99.90;;;;;;4961070;28;20030;-77
2023/04/03 09:58:26;;;;;;;0.08;0.08;;;7.00;99.90;;;;;;4960117;28;20061;-79
2023/04/03 10:01:01;;;;;;;0.10;0.10;;;6.90;99.90;;;;;;4960617;28;20027;-76
2023/04/03 10:03:36;;;;;;;0.00;0.00;;;6.90;99.90;;;;;;4960567;28;20105;-76
2023/04/03 10:06:03;;;;;;;0.00;0.00;;;6.90;99.90;;;;;;4969037;28;20058;-76
2023/04/03 10:08:35;;;;;;;0.00;0.00;;;6.90;99.90;;;;;;4965568;28;20082;-77
2023/04/03 10:11:15;;;;;;;0.00;0.00;;;6.90;99.90;;;;;;4967748;28;20129;-77
2023/04/03 10:14:16;;;;;;;0.00;0.00;;;7.00;99.90;;;;;;4969822;28;20027;-77
2023/04/03 10:16:52;;;;;;;0.03;0.03;;;7.00;99.90;;;;;;4948466;28;20054;-74
2023/04/03 10:19:31;;;;;;;0.00;0.00;;;7.00;99.90;;;;;;4967381;28;20104;-77
2023/04/03 10:22:19;;;;;;;0.00;0.00;;;7.10;99.90;;;;;;4970018;28;20015;-76
2023/04/03 10:25:02;;;;;;;0.00;0.00;;;7.20;99.90;;;;;;4989156;28;20036;-76
2023/04/03 10:27:48;;;;;;;0.10;0.10;;;7.00;99.90;;;;;;5010911;28;20245;-76
2023/04/03 10:30:31;;;;;;;0.00;0.00;;;7.10;99.90;;;;;;5011465;28;20032;-75
2023/04/03 10:33:29;;;;;;;0.00;0.00;;;7.10;99.90;;;;;;5014030;28;20041;-77
2023/04/03 10:36:13;;;;;;;0.00;0.00;;;7.20;99.90;;;;;;4951925;28;20026;-76
2023/04/03 10:39:28;;;;;;;0.00;0.00;;;7.20;99.90;;;;;;4978063;28;20054;-75
2023/04/03 10:42:10;;;;;;;3.53;3.40;;;7.20;99.90;;;;;;4886720;29;20361;-78
2023/04/03 10:45:00;;;;;;;0.00;0.00;;;7.30;99.90;;;;;;4885637;29;20029;-77
2023/04/03 10:47:32;;;;;;;0.52;0.52;;;7.20;99.90;;;;;;4885903;29;20040;-76
2023/04/03 10:50:20;;;;;;;0.00;0.00;;;7.20;99.90;;;;;;4887964;29;20847;-77
2023/04/03 10:53:10;;;;;;;0.00;0.00;;;7.20;99.90;;;;;;4886645;29;20049;-75
2023/04/03 10:56:02;;;;;;;0.10;0.10;;;7.20;99.90;;;;;;4887449;29;20057;-76
2023/04/03 10:58:36;;;;;;;0.00;0.00;;;7.20;99.90;;;;;;4889395;29;20036;-77
2023/04/03 11:01:08;;;;;;;0.00;0.00;;;7.20;99.90;;;;;;4886690;29;20056;-75
2023/04/03 11:03:43;;;;;;;0.10;0.10;;;7.30;99.90;;;;;;4888143;29;20655;-76
2023/04/03 11:06:29;;;;;;;0.00;0.00;;;7.20;99.90;;;;;;4903981;29;20064;-77
2023/04/03 11:09:06;;;;;;;0.10;0.10;;;7.20;99.90;;;;;;4915851;29;20036;-78
2023/04/03 11:11:38;;;;;;;0.00;0.00;;;7.10;99.90;;;;;;4939673;29;20027;-78
2023/04/03 11:14:27;;;;;;;0.05;0.05;;;7.10;99.90;;;;;;4947176;29;20039;-76
2023/04/03 11:17:11;;;;;;;0.00;0.00;;;7.10;99.90;;;;;;5021830;28;20042;-77
2023/04/03 11:19:59;;;;;;;0.00;0.00;;;7.00;99.90;;;;;;5000936;28;20026;-78
2023/04/03 11:22:58;;;;;;;0.00;0.00;;;6.90;99.90;;;;;;4990204;28;20293;-77
2023/04/03 11:25:25;;;;;;;0.00;0.00;;;6.70;99.90;;;;;;5010085;28;20661;-76
2023/04/03 11:28:02;;;;;;;0.00;0.00;;;6.80;99.90;;;;;;5007962;28;20018;-76
2023/04/03 11:30:37;;;;;;;0.10;0.10;;;6.80;99.90;;;;;;5007307;28;20049;-76
2023/04/03 11:33:15;;;;;;;0.00;0.00;;;7.00;99.90;;;;;;5011097;28;20036;-77
2023/04/03 11:35:50;;;;;;;0.00;0.00;;;7.10;99.90;;;;;;5011347;28;20223;-77
2023/04/03 11:38:43;;;;;;;0.00;0.00;;;7.00;99.90;;;;;;5005263;28;20053;-76
2023/04/03 11:41:11;;;;;;;0.00;0.00;;;7.10;99.90;;;;;;5008592;28;20026;-76
2023/04/03 11:44:11;;;;;;;0.10;0.10;;;7.10;99.90;;;;;;5009356;28;20033;-77
2023/04/03 11:46:55;;;;;;;0.00;0.00;;;7.20;99.90;;;;;;5000989;28;20034;-76
2023/04/03 11:49:58;;;;;;;0.00;0.00;;;7.10;99.90;;;;;;5013226;28;20022;-77
2023/04/03 11:52:46;;;;;;;0.05;0.05;;;6.90;99.90;;;;;;5031955;28;20090;-81
2023/04/03 11:55:50;;;;;;;0.00;0.00;;;7.00;99.90;;;;;;5020954;28;20029;-75
2023/04/03 11:58:26;;;;;;;0.00;0.00;;;6.80;99.90;;;;;;4946973;28;20032;-76
2023/04/03 12:01:08;;;;;;;0.47;0.47;;;6.60;99.90;;;;;;4943962;29;21157;-77
2023/04/03 12:04:04;;;;;;;0.03;0.03;;;6.70;99.90;;;;;;4956517;29;20118;-80
2023/04/03 12:06:32;;;;;;;0.10;0.10;;;6.80;99.90;;;;;;4946048;29;20143;-77
2023/04/03 12:08:58;;;;;;;0.00;0.00;;;6.50;99.90;;;;;;4948258;29;20039;-76
2023/04/03 12:11:30;;;;;;;0.00;0.00;;;6.60;99.90;;;;;;4945923;29;20036;-77
2023/04/03 12:13:55;;;;;;;3.28;3.13;;;6.60;99.90;;;;;;4926484;29;20034;-75
2023/04/03 12:16:26;;;;;;;0.00;0.00;;;6.70;99.90;;;;;;4925469;29;20047;-77
2023/04/03 12:18:52;;;;;;;0.00;0.00;;;6.70;99.90;;;;;;4921956;29;20031;-76
2023/04/03 12:21:21;;;;;;;0.00;0.00;;;6.50;99.90;;;;;;4906193;29;20059;-78
2023/04/03 12:23:57;;;;;;;0.00;0.00;;;6.60;99.90;;;;;;4927922;29;20028;-76
2023/04/03 12:26:30;;;;;;;0.00;0.00;;;6.60;99.90;;;;;;4923062;29;20034;-75
2023/04/03 12:28:57;;;;;;;0.00;0.00;;;6.50;99.90;;;;;;4908388;29;20109;-76
2023/04/03 12:31:32;;;;;;;0.08;0.08;;;6.50;99.90;;;;;;4922544;29;20221;-77
2023/04/03 12:34:06;;;;;;;0.10;0.10;;;6.60;99.90;;;;;;4933749;28;20035;-79
2023/04/03 12:36:55;;;;;;;0.00;0.00;;;6.60;99.90;;;;;;4966677;28;20069;-78
2023/04/03 12:39:43;;;;;;;0.00;0.00;;;6.50;99.90;;;;;;4964402;28;20033;-76
2023/04/03 12:42:40;;;;;;;0.00;0.00;;;6.50;99.90;;;;;;4967843;28;20047;-74
2023/04/03 12:45:19;;;;;;;0.10;0.10;;;6.50;99.90;;;;;;4964585;28;20098;-76
2023/04/03 12:47:45;;;;;;;5.10;4.65;;;6.30;99.90;;;;;;4964427;28;20019;-76
2023/04/03 12:50:32;;;;;;;0.00;0.00;;;6.40;99.90;;;;;;4965682;28;20524;-75
2023/04/03 12:53:04;;;;;;;0.00;0.00;;;6.50;99.90;;;;;;4970125;28;20026;-75
2023/04/03 12:55:30;;;;;;;0.00;0.00;;;;;;;;;;4970194;28;20101;-74
2023/04/03 12:57:56;;;;;;;0.00;0.00;;;6.60;99.90;;;;;;4971753;28;20022;-75
2023/04/03 13:00:42;;;;;;;0.00;0.00;;;6.60;99.90;;;;;;4969340;28;20050;-76
2023/04/03 13:03:24;;;;;;;0.10;0.10;;;6.50;99.90;;;;;;4966756;28;20019;-77
2023/04/03 13:05:50;;;;;;;0.00;0.00;;;6.60;99.90;;;;;;4969846;28;20062;-79
2023/04/03 13:08:19;;;;;;;0.00;0.00;;;6.50;99.90;;;;;;4962850;28;20030;-79
2023/04/03 13:10:54;;;;;;;0.10;0.10;;;6.50;99.90;;;;;;4983464;28;20076;-76
2023/04/03 13:13:20;;;;;;;0.00;0.00;;;6.60;99.90;;;;;;4976076;28;20488;-75
2023/04/03 13:15:50;;;;;;;0.08;0.08;;;6.50;99.90;;;;;;4989532;28;20047;-75
2023/04/03 13:18:35;;;;;;;0.10;0.10;;;6.50;99.90;;;;;;4993267;28;20025;-75
2023/04/03 13:21:08;;;;;;;0.00;0.00;;;6.40;99.90;;;;;;5011815;28;20025;-76